CheckWX is a tool to help pilots better visualize weather data.  It is not intended as a substitute for an official pre-flight weather briefing.

01:37:25 UTC

KROC METAR
Greater Rochester International Airport
Rochester, New York, USA
Current

43 mins ago

KROC 200054Z 31006KT 3SM -SN FEW021 OVC027 M08/M11 A3011 RMK AO2 SLP209 P0000 T10781106
Observed
Jan-20 @ 00:54 UTC
Wind
  • 310° at 6 KTS
Visibility
3 SM
Flight Rules
MVFR
Conditions
Light Snow
Cloud Levels
  • Few at 2,100' AGL
  • Overcast at 2,700' AGL
Temperature
-8°C / 18°F
Dewpoint
-11°C / 12°F
Humidity
79%
Altimeter
30.11" Hg
Pressure
1019.62 hPa
Current Rain
0.01"
Previous

1 hour ago

KROC 200019Z 32008KT 3SM -SN FEW020 OVC029 M08/M11 A3009 RMK AO2 P0000 T10781106
Observed
Jan-20 @ 00:19 UTC
Wind
  • 320° at 8 KTS
Visibility
3 SM
Flight Rules
MVFR
Conditions
Light Snow
Cloud Levels
  • Few at 2,000' AGL
  • Overcast at 2,900' AGL
Temperature
-8°C / 18°F
Dewpoint
-11°C / 12°F
Humidity
79%
Altimeter
30.09" Hg
Pressure
1018.92 hPa
Current Rain
0.01"
Previous

2 hours ago

KROC 192354Z 32008KT 2SM -SN BKN017 OVC034 M08/M11 A3008 RMK AO2 SLP197 4/006 P0000 60000 T10781106 11033 21078 51044
Observed
Jan-19 @ 23:54 UTC
Wind
  • 320° at 8 KTS
Visibility
2 SM
Flight Rules
IFR
Conditions
Light Snow
Cloud Levels
  • Broken at 1,700' AGL
  • Overcast at 3,400' AGL
Temperature
-8°C / 18°F
Dewpoint
-11°C / 12°F
Humidity
79%
Altimeter
30.08" Hg
Pressure
1018.62 hPa
Current Rain
0.01"
Snow Depth
6"